Time;durP1;ratioP1;P1;durP2;ratioP2;P2;SDS_P1;SDS_P2;PMS_P1;PMS_P2;Temp;Humidity;BMP_temperature;BMP_pressure;BME280_temperature;BME280_humidity;BME280_pressure;Samples;Min_cycle;Max_cycle;Signal;HPM_P1;HPM_P2
2023/01/21 00:00:51;;;;;;;;;;;3.00;99.90;;;;;;5098206;28;20019;-50
2023/01/21 00:03:17;;;;;;;;;;;2.90;99.90;;;;;;5098398;28;19999;-50
2023/01/21 00:05:42;;;;;;;;;;;2.90;99.90;;;;;;5098112;28;20439;-48
2023/01/21 00:08:08;;;;;;;;;;;2.90;99.90;;;;;;5098447;28;19908;-48
2023/01/21 00:10:33;;;;;;;;;;;2.80;99.90;;;;;;5098502;28;19930;-52
2023/01/21 00:12:59;;;;;;;;;;;2.80;99.90;;;;;;5098444;28;19930;-49
2023/01/21 00:15:25;;;;;;;;;;;2.70;99.90;;;;;;5098594;28;19937;-49
2023/01/21 00:17:51;;;;;;;;;;;2.70;99.90;;;;;;5098395;28;19953;-47
2023/01/21 00:20:17;;;;;;;;;;;2.70;99.90;;;;;;5098349;28;19930;-50
2023/01/21 00:22:42;;;;;;;;;;;2.60;99.90;;;;;;5098268;28;19983;-47
2023/01/21 00:25:08;;;;;;;;;;;2.60;99.90;;;;;;5098399;28;19962;-51
2023/01/21 00:27:34;;;;;;;;;;;2.60;99.90;;;;;;5098355;28;19958;-48
2023/01/21 00:29:59;;;;;;;;;;;2.50;99.90;;;;;;5098167;28;19915;-48
2023/01/21 00:32:25;;;;;;;;;;;2.50;99.90;;;;;;5098245;28;19915;-50
2023/01/21 00:34:50;;;;;;;;;;;2.50;99.90;;;;;;5098029;28;20344;-48
2023/01/21 00:37:16;;;;;;;;;;;2.50;99.90;;;;;;5098174;28;19923;-50
2023/01/21 00:39:42;;;;;;;;;;;2.50;99.90;;;;;;5098166;28;19908;-48
2023/01/21 00:42:10;;;;;;;;;;;2.50;99.90;;;;;;5097952;28;19953;-48
2023/01/21 00:44:37;;;;;;;;;;;2.50;99.90;;;;;;5098146;28;19908;-49
2023/01/21 00:47:03;;;;;;;;;;;2.50;99.90;;;;;;5098130;28;19908;-47
2023/01/21 00:49:28;;;;;;;;;;;2.50;99.90;;;;;;5097838;28;20271;-47
2023/01/21 00:51:54;;;;;;;;;;;2.50;99.90;;;;;;5098349;28;19947;-47
2023/01/21 00:54:19;;;;;;;;;;;2.50;99.90;;;;;;5098100;28;19908;-49
2023/01/21 00:56:45;;;;;;;;;;;2.50;99.90;;;;;;5098018;28;20390;-47
2023/01/21 00:59:11;;;;;;;;;;;2.50;99.90;;;;;;5098015;28;19959;-50
2023/01/21 01:01:37;;;;;;;;;;;2.50;99.90;;;;;;5097896;28;20003;-47
2023/01/21 01:04:04;;;;;;;;;;;2.50;99.90;;;;;;5097906;28;19916;-50
2023/01/21 01:06:30;;;;;;;;;;;2.50;99.90;;;;;;5097813;28;19912;-47
2023/01/21 01:08:58;;;;;;;;;;;2.50;99.90;;;;;;5098226;28;19915;-48
2023/01/21 01:11:25;;;;;;;;;;;2.50;99.90;;;;;;5101762;28;19909;-47
2023/01/21 01:13:51;;;;;;;;;;;2.50;99.90;;;;;;5101564;28;19909;-49
2023/01/21 01:16:17;;;;;;;;;;;2.50;99.90;;;;;;5101922;28;20406;-48
2023/01/21 01:18:43;;;;;;;;;;;2.50;99.90;;;;;;5100243;28;19912;-49
2023/01/21 01:21:13;;;;;;;;;;;2.50;99.90;;;;;;5101966;28;20348;-48
2023/01/21 01:23:39;;;;;;;;;;;2.50;99.90;;;;;;5101512;28;19912;-48
2023/01/21 01:26:06;;;;;;;;;;;2.50;99.90;;;;;;5100006;28;19908;-50
2023/01/21 01:28:32;;;;;;;;;;;2.50;99.90;;;;;;5101353;28;19908;-46
2023/01/21 01:30:58;;;;;;;;;;;2.40;99.90;;;;;;5101287;28;19908;-50
2023/01/21 01:33:24;;;;;;;;;;;2.40;99.90;;;;;;5101443;28;20002;-50
2023/01/21 01:35:50;;;;;;;;;;;2.40;99.90;;;;;;5101426;28;19909;-47
2023/01/21 01:38:18;;;;;;;;;;;2.40;99.90;;;;;;5101230;28;19915;-48
2023/01/21 01:40:45;;;;;;;;;;;2.40;99.90;;;;;;5101321;28;19915;-51
2023/01/21 01:43:15;;;;;;;;;;;2.40;99.90;;;;;;5100980;28;19912;-48
2023/01/21 01:45:40;;;;;;;;;;;2.40;99.90;;;;;;5101400;28;20422;-47
2023/01/21 01:48:08;;;;;;;;;;;2.30;99.90;;;;;;5101043;28;20293;-49
2023/01/21 01:50:35;;;;;;;;;;;2.30;99.90;;;;;;5101826;28;19908;-47
2023/01/21 01:53:01;;;;;;;;;;;2.30;99.90;;;;;;5100953;28;20244;-51
2023/01/21 01:55:28;;;;;;;;;;;2.30;99.90;;;;;;5100831;28;19908;-50
2023/01/21 01:57:54;;;;;;;;;;;2.30;99.90;;;;;;5100853;28;19942;-48
2023/01/21 02:00:20;;;;;;;;;;;2.20;99.90;;;;;;5100580;28;20393;-50
2023/01/21 02:03:43;;;;;;;;;;;2.20;99.90;;;;;;5101096;28;20002;-48
2023/01/21 02:05:35;;;;;;;;;;;2.20;99.90;;;;;;5100479;28;19984;-51
2023/01/21 02:08:01;;;;;;;;;;;2.20;99.90;;;;;;5100825;28;20002;-49
2023/01/21 02:10:27;;;;;;;;;;;2.10;99.90;;;;;;5100778;28;19958;-54
2023/01/21 02:12:53;;;;;;;;;;;2.10;99.90;;;;;;5100572;28;19908;-51
2023/01/21 02:15:19;;;;;;;;;;;2.10;99.90;;;;;;5100421;28;20377;-49
2023/01/21 02:18:03;;;;;;;;;;;2.10;99.90;;;;;;5100472;28;19908;-52
2023/01/21 02:20:35;;;;;;;;;;;2.10;99.90;;;;;;5100283;28;19958;-50
2023/01/21 02:23:00;;;;;;;;;;;2.10;99.90;;;;;;5099813;28;19912;-51
2023/01/21 02:25:39;;;;;;;;;;;2.00;99.90;;;;;;5098986;28;20368;-47
2023/01/21 02:28:04;;;;;;;;;;;2.00;99.90;;;;;;5100302;28;19914;-51
2023/01/21 02:30:39;;;;;;;;;;;2.00;99.90;;;;;;5100328;28;19975;-51
2023/01/21 02:33:14;;;;;;;;;;;2.00;99.90;;;;;;5099889;28;20288;-49
2023/01/21 02:35:42;;;;;;;;;;;1.90;99.90;;;;;;5100140;28;19951;-49
2023/01/21 02:38:19;;;;;;;;;;;1.90;99.90;;;;;;5100183;28;19908;-47
2023/01/21 02:41:10;;;;;;;;;;;1.90;99.90;;;;;;5100197;28;19915;-50
2023/01/21 02:43:46;;;;;;;;;;;1.90;99.90;;;;;;5100151;28;19952;-51
2023/01/21 02:46:15;;;;;;;;;;;1.80;99.90;;;;;;5099858;28;19955;-54
2023/01/21 02:48:46;;;;;;;;;;;1.80;99.90;;;;;;5098372;28;19908;-48
2023/01/21 02:51:12;;;;;;;;;;;1.80;99.90;;;;;;5099986;28;19915;-48
2023/01/21 02:53:38;;;;;;;;;;;1.80;99.90;;;;;;5099918;28;19908;-48
2023/01/21 02:56:21;;;;;;;;;;;1.70;99.90;;;;;;5099723;28;19908;-50
2023/01/21 02:58:51;;;;;;;;;;;1.70;99.90;;;;;;5100003;28;19953;-48
2023/01/21 03:01:17;;;;;;;;;;;1.70;99.90;;;;;;5099755;28;19924;-56
2023/01/21 03:03:48;;;;;;;;;;;1.70;99.90;;;;;;5099462;28;19908;-51
2023/01/21 03:06:20;;;;;;;;;;;1.70;99.90;;;;;;5099617;28;19915;-52
2023/01/21 03:08:45;;;;;;;;;;;1.70;99.90;;;;;;5100047;28;20012;-49
2023/01/21 03:11:14;;;;;;;;;;;1.70;99.90;;;;;;5099401;28;19909;-50
2023/01/21 03:16:57;;;;;;;;;;;1.60;99.90;;;;;;5099369;28;19931;-53
2023/01/21 03:19:32;;;;;;;;;;;1.60;99.90;;;;;;5099358;28;19908;-48
2023/01/21 03:21:58;;;;;;;;;;;1.60;99.90;;;;;;5099356;28;20045;-50
2023/01/21 03:24:24;;;;;;;;;;;1.60;99.90;;;;;;5099228;28;19908;-47
2023/01/21 03:26:51;;;;;;;;;;;1.60;99.90;;;;;;5099092;28;19915;-49
2023/01/21 03:29:19;;;;;;;;;;;1.60;99.90;;;;;;5099304;28;19908;-51
2023/01/21 03:31:47;;;;;;;;;;;1.60;99.90;;;;;;5098812;28;19915;-51
2023/01/21 03:34:14;;;;;;;;;;;1.70;99.90;;;;;;5098796;28;19908;-49
2023/01/21 03:36:40;;;;;;;;;;;1.60;99.90;;;;;;5099080;28;19908;-48
2023/01/21 03:39:13;;;;;;;;;;;1.60;99.90;;;;;;5099052;28;19915;-49
2023/01/21 03:41:39;;;;;;;;;;;1.60;99.90;;;;;;5099012;28;20383;-50
2023/01/21 03:44:05;;;;;;;;;;;1.60;99.90;;;;;;5099009;28;19908;-50
2023/01/21 03:46:40;;;;;;;;;;;1.60;99.90;;;;;;5099062;28;19916;-48
2023/01/21 03:49:08;;;;;;;;;;;1.60;99.90;;;;;;5098661;28;19908;-47
2023/01/21 03:51:37;;;;;;;;;;;1.60;99.90;;;;;;5099085;28;19908;-48
2023/01/21 03:54:02;;;;;;;;;;;2.20;99.90;;;;;;5098776;28;19961;-48
2023/01/21 03:56:28;;;;;;;;;;;1.60;99.90;;;;;;5098554;28;19912;-51
2023/01/21 03:58:54;;;;;;;;;;;1.60;99.90;;;;;;5098425;28;19914;-49
2023/01/21 04:01:19;;;;;;;;;;;1.60;99.90;;;;;;5098487;28;19990;-49
2023/01/21 04:03:45;;;;;;;;;;;1.60;99.90;;;;;;5098424;28;19908;-50
2023/01/21 04:06:18;;;;;;;;;;;1.60;99.90;;;;;;5098624;28;19912;-50
2023/01/21 04:08:43;;;;;;;;;;;1.60;99.90;;;;;;5098815;28;19915;-48
2023/01/21 04:11:09;;;;;;;;;;;1.60;99.90;;;;;;5098435;28;19908;-54
2023/01/21 04:13:35;;;;;;;;;;;1.60;99.90;;;;;;5098318;28;20379;-51
2023/01/21 04:16:01;;;;;;;;;;;1.60;99.90;;;;;;5098556;28;19908;-50
2023/01/21 04:18:26;;;;;;;;;;;1.60;99.90;;;;;;5098205;28;20372;-50
2023/01/21 04:20:52;;;;;;;;;;;1.60;99.90;;;;;;5098152;28;19912;-49
2023/01/21 04:23:18;;;;;;;;;;;1.60;99.90;;;;;;5098036;28;19963;-49
2023/01/21 04:25:43;;;;;;;;;;;1.60;99.90;;;;;;5098223;28;20374;-47
2023/01/21 04:28:09;;;;;;;;;;;1.60;99.90;;;;;;5098138;28;19943;-50
2023/01/21 04:30:34;;;;;;;;;;;1.60;99.90;;;;;;5098350;28;19958;-48
2023/01/21 04:33:00;;;;;;;;;;;1.50;99.90;;;;;;5098033;28;19914;-49
2023/01/21 04:35:26;;;;;;;;;;;1.50;99.90;;;;;;5098517;28;20384;-48
2023/01/21 04:37:51;;;;;;;;;;;1.50;99.90;;;;;;5098235;28;19909;-49
2023/01/21 04:40:17;;;;;;;;;;;1.50;99.90;;;;;;5098464;28;19908;-49
2023/01/21 04:42:43;;;;;;;;;;;1.50;99.90;;;;;;5097876;28;19938;-53
2023/01/21 04:45:09;;;;;;;;;;;1.50;99.90;;;;;;5099974;28;19908;-55
2023/01/21 04:47:34;;;;;;;;;;;1.50;99.90;;;;;;5102348;28;19912;-51
2023/01/21 04:50:01;;;;;;;;;;;1.50;99.90;;;;;;5102299;28;19950;-48
2023/01/21 04:52:26;;;;;;;;;;;1.50;99.90;;;;;;5102006;28;19908;-48
2023/01/21 04:54:52;;;;;;;;;;;1.50;99.90;;;;;;5101800;28;19919;-48
2023/01/21 04:57:18;;;;;;;;;;;1.50;99.90;;;;;;5102415;28;20034;-49
2023/01/21 04:59:43;;;;;;;;;;;1.50;99.90;;;;;;5101917;28;19995;-49
2023/01/21 05:02:09;;;;;;;;;;;1.40;99.90;;;;;;5101946;28;19965;-50
2023/01/21 05:04:34;;;;;;;;;;;1.40;99.90;;;;;;5102006;28;19955;-48
2023/01/21 05:07:00;;;;;;;;;;;1.40;99.90;;;;;;5102001;28;19988;-48
2023/01/21 05:09:26;;;;;;;;;;;1.40;99.90;;;;;;5102231;28;19916;-50
2023/01/21 05:11:51;;;;;;;;;;;1.40;99.90;;;;;;5101797;28;19935;-50
2023/01/21 05:14:17;;;;;;;;;;;1.40;99.90;;;;;;5101859;28;19971;-49
2023/01/21 05:16:42;;;;;;;;;;;1.30;99.90;;;;;;5101982;28;20040;-50
2023/01/21 05:19:08;;;;;;;;;;;1.30;99.90;;;;;;5101819;28;19908;-52
2023/01/21 05:21:34;;;;;;;;;;;1.30;99.90;;;;;;5101461;28;19912;-53
2023/01/21 05:23:59;;;;;;;;;;;1.30;99.90;;;;;;5101975;28;19916;-49
2023/01/21 05:26:25;;;;;;;;;;;1.30;99.90;;;;;;5101444;28;19908;-50
2023/01/21 05:28:50;;;;;;;;;;;1.30;99.90;;;;;;5101755;28;19999;-49
2023/01/21 05:31:16;;;;;;;;;;;1.20;99.90;;;;;;5101539;28;19930;-52
2023/01/21 05:33:44;;;;;;;;;;;1.30;99.90;;;;;;5101525;28;19978;-50
2023/01/21 05:36:10;;;;;;;;;;;1.30;99.90;;;;;;5101399;28;19915;-49
2023/01/21 05:38:35;;;;;;;;;;;1.30;99.90;;;;;;5100992;28;19908;-49
2023/01/21 05:41:02;;;;;;;;;;;1.30;99.90;;;;;;5101358;28;19915;-50
2023/01/21 05:43:28;;;;;;;;;;;1.30;99.90;;;;;;5101282;28;19918;-50
2023/01/21 05:45:54;;;;;;;;;;;1.30;99.90;;;;;;5101287;28;20002;-49
2023/01/21 05:48:19;;;;;;;;;;;1.20;99.90;;;;;;5101035;28;19947;-51
2023/01/21 05:50:46;;;;;;;;;;;1.20;99.90;;;;;;5101563;28;19915;-51
2023/01/21 05:53:11;;;;;;;;;;;1.20;99.90;;;;;;5101171;28;19970;-51
2023/01/21 05:55:37;;;;;;;;;;;1.20;99.90;;;;;;5100760;28;19908;-51
2023/01/21 05:58:03;;;;;;;;;;;1.20;99.90;;;;;;5101168;28;20383;-49
2023/01/21 06:00:28;;;;;;;;;;;1.10;99.90;;;;;;5100503;28;20761;-47
2023/01/21 06:02:54;;;;;;;;;;;1.10;99.90;;;;;;5100699;28;19933;-50
2023/01/21 06:05:21;;;;;;;;;;;1.10;99.90;;;;;;5100114;28;20195;-48
2023/01/21 06:07:48;;;;;;;;;;;1.10;99.90;;;;;;5100908;28;19915;-53
2023/01/21 06:10:14;;;;;;;;;;;1.10;99.90;;;;;;5100581;28;19959;-50
2023/01/21 06:12:40;;;;;;;;;;;1.10;99.90;;;;;;5100851;28;19908;-50
2023/01/21 06:15:05;;;;;;;;;;;1.10;99.90;;;;;;5100917;28;20328;-48
2023/01/21 06:17:31;;;;;;;;;;;1.10;99.90;;;;;;5100599;28;19908;-48
2023/01/21 06:19:57;;;;;;;;;;;1.10;99.90;;;;;;5100366;28;19931;-50
2023/01/21 06:22:22;;;;;;;;;;;1.10;99.90;;;;;;5100466;28;19916;-48
2023/01/21 06:24:48;;;;;;;;;;;1.10;99.90;;;;;;5100804;28;19908;-52
2023/01/21 06:27:13;;;;;;;;;;;1.10;99.90;;;;;;5100275;28;19973;-47
2023/01/21 06:29:39;;;;;;;;;;;1.00;99.90;;;;;;5100032;28;20291;-51
2023/01/21 06:32:05;;;;;;;;;;;1.00;99.90;;;;;;5100370;28;20379;-48
2023/01/21 06:34:30;;;;;;;;;;;1.00;99.90;;;;;;5100424;28;19912;-51
2023/01/21 06:36:56;;;;;;;;;;;1.00;99.90;;;;;;5100095;28;19908;-50
2023/01/21 06:39:22;;;;;;;;;;;1.00;99.90;;;;;;5100238;28;19912;-48
2023/01/21 06:41:47;;;;;;;;;;;1.00;99.90;;;;;;5100311;28;20372;-48
2023/01/21 06:44:13;;;;;;;;;;;1.00;99.90;;;;;;5100126;28;19908;-49
2023/01/21 06:46:38;;;;;;;;;;;1.00;99.90;;;;;;5099428;28;19908;-51
2023/01/21 06:49:04;;;;;;;;;;;1.00;99.90;;;;;;5099906;28;19908;-48
2023/01/21 06:51:30;;;;;;;;;;;1.00;99.90;;;;;;5099725;28;19908;-53
2023/01/21 06:53:55;;;;;;;;;;;1.00;99.90;;;;;;5100167;28;19908;-51
2023/01/21 06:56:21;;;;;;;;;;;0.90;99.90;;;;;;5099860;28;19955;-53
2023/01/21 06:58:47;;;;;;;;;;;0.90;99.90;;;;;;5099375;28;19973;-54
2023/01/21 07:01:13;;;;;;;;;;;0.90;99.90;;;;;;5099100;28;19924;-55
2023/01/21 07:03:38;;;;;;;;;;;0.90;99.90;;;;;;5099546;28;19995;-53
2023/01/21 07:06:04;;;;;;;;;;;0.80;99.90;;;;;;5100072;28;19909;-52
2023/01/21 07:08:30;;;;;;;;;;;0.90;99.90;;;;;;5099153;28;19999;-51
2023/01/21 07:10:55;;;;;;;;;;;0.80;99.90;;;;;;5099469;28;19922;-50
2023/01/21 07:13:22;;;;;;;;;;;0.80;99.90;;;;;;5099344;28;19908;-49
2023/01/21 07:15:47;;;;;;;;;;;0.80;99.90;;;;;;5099253;28;19915;-55
2023/01/21 07:18:13;;;;;;;;;;;0.80;99.90;;;;;;5099198;28;20356;-52
2023/01/21 07:20:39;;;;;;;;;;;0.80;99.90;;;;;;5099284;28;19939;-51
2023/01/21 07:23:05;;;;;;;;;;;0.80;99.90;;;;;;5099005;28;19920;-53
2023/01/21 07:25:31;;;;;;;;;;;0.80;99.90;;;;;;5099583;28;20010;-49
2023/01/21 07:27:57;;;;;;;;;;;0.80;99.90;;;;;;5099258;28;19915;-51
2023/01/21 07:30:22;;;;;;;;;;;0.80;99.90;;;;;;5099199;28;19912;-54
2023/01/21 07:32:48;;;;;;;;;;;0.80;99.90;;;;;;5098917;28;20288;-49
2023/01/21 07:35:14;;;;;;;;;;;0.70;99.90;;;;;;5099128;28;19908;-51
2023/01/21 07:37:39;;;;;;;;;;;0.70;99.90;;;;;;5097428;28;19909;-51
2023/01/21 07:40:05;;;;;;;;;;;0.70;99.90;;;;;;5099051;28;19908;-51
2023/01/21 07:42:31;;;;;;;;;;;0.70;99.90;;;;;;5098656;28;20391;-51
2023/01/21 07:44:58;;;;;;;;;;;0.70;99.90;;;;;;5098859;28;19912;-48
2023/01/21 07:47:24;;;;;;;;;;;0.70;99.90;;;;;;5098847;28;19956;-53
2023/01/21 07:49:49;;;;;;;;;;;0.70;99.90;;;;;;5099021;28;20007;-49
2023/01/21 07:52:15;;;;;;;;;;;0.60;99.90;;;;;;5098372;28;19915;-50
2023/01/21 07:54:41;;;;;;;;;;;0.60;99.90;;;;;;5098558;28;19908;-52
2023/01/21 07:57:07;;;;;;;;;;;0.60;99.90;;;;;;5098523;28;19908;-49
2023/01/21 07:59:32;;;;;;;;;;;0.70;99.90;;;;;;5098364;28;19953;-54
2023/01/21 08:01:58;;;;;;;;;;;0.60;99.90;;;;;;5098561;28;19916;-53
2023/01/21 08:04:24;;;;;;;;;;;0.60;99.90;;;;;;5098370;28;19908;-50
2023/01/21 08:06:55;;;;;;;;;;;0.60;99.90;;;;;;5098350;28;19953;-54
2023/01/21 08:09:24;;;;;;;;;;;0.60;99.90;;;;;;5098396;28;19933;-53
2023/01/21 08:11:50;;;;;;;;;;;0.60;99.90;;;;;;5098730;28;19909;-54
2023/01/21 08:14:15;;;;;;;;;;;0.60;99.90;;;;;;5098256;28;19908;-48
2023/01/21 08:16:41;;;;;;;;;;;0.60;99.90;;;;;;5098473;28;19912;-48
2023/01/21 08:19:06;;;;;;;;;;;0.70;99.90;;;;;;5097277;28;19958;-52
2023/01/21 08:21:32;;;;;;;;;;;0.70;99.90;;;;;;5098551;28;19970;-50
2023/01/21 08:23:58;;;;;;;;;;;0.70;99.90;;;;;;5098096;28;20374;-50
2023/01/21 08:26:23;;;;;;;;;;;0.70;99.90;;;;;;5098169;28;19908;-52
2023/01/21 08:28:51;;;;;;;;;;;0.70;99.90;;;;;;5098153;28;19915;-51
2023/01/21 08:31:17;;;;;;;;;;;0.80;99.90;;;;;;5098006;28;19908;-50
2023/01/21 08:33:43;;;;;;;;;;;0.80;99.90;;;;;;5098426;28;20484;-49
2023/01/21 08:36:08;;;;;;;;;;;0.90;99.90;;;;;;5097460;28;20330;-54
2023/01/21 08:38:34;;;;;;;;;;;1.00;99.90;;;;;;5098113;28;19909;-53
2023/01/21 08:41:00;;;;;;;;;;;1.20;99.90;;;;;;5097887;28;19912;-54
2023/01/21 08:43:26;;;;;;;;;;;1.30;99.90;;;;;;5097856;28;19912;-53
2023/01/21 08:45:54;;;;;;;;;;;1.40;99.90;;;;;;5097784;28;19908;-50
2023/01/21 08:48:20;;;;;;;;;;;1.40;99.90;;;;;;5097953;28;19909;-50
2023/01/21 08:50:46;;;;;;;;;;;1.50;99.90;;;;;;5097833;28;20017;-49
2023/01/21 08:53:11;;;;;;;;;;;1.50;99.90;;;;;;5097538;28;20037;-54
2023/01/21 08:55:37;;;;;;;;;;;1.80;99.90;;;;;;5098117;28;20345;-54
2023/01/21 08:58:02;;;;;;;;;;;2.30;99.90;;;;;;5097524;28;19912;-54
2023/01/21 09:00:28;;;;;;;;;;;2.90;99.90;;;;;;5097240;28;20008;-52
2023/01/21 09:02:54;;;;;;;;;;;3.30;99.90;;;;;;5097836;28;20290;-52
2023/01/21 09:05:20;;;;;;;;;;;3.40;99.90;;;;;;5097520;28;19950;-53
2023/01/21 09:07:46;;;;;;;;;;;4.00;99.90;;;;;;5097654;28;20275;-53
2023/01/21 09:10:12;;;;;;;;;;;4.90;99.90;;;;;;5097724;28;19943;-52
2023/01/21 09:12:39;;;;;;;;;;;5.60;99.90;;;;;;5097808;28;19950;-54
2023/01/21 09:15:05;;;;;;;;;;;5.80;99.90;;;;;;5097684;28;19909;-51
2023/01/21 09:17:30;;;;;;;;;;;5.80;99.90;;;;;;5097564;28;19908;-54
2023/01/21 09:19:56;;;;;;;;;;;5.80;99.90;;;;;;5097894;28;19909;-54
2023/01/21 09:22:21;;;;;;;;;;;5.70;99.90;;;;;;5097570;28;19912;-53
2023/01/21 09:24:47;;;;;;;;;;;5.70;99.90;;;;;;5097380;28;19940;-54
2023/01/21 09:27:13;;;;;;;;;;;5.70;99.90;;;;;;5097048;28;20003;-55
2023/01/21 09:29:38;;;;;;;;;;;5.90;99.90;;;;;;5097400;28;19908;-53
2023/01/21 09:32:04;;;;;;;;;;;6.10;99.90;;;;;;5101002;28;19938;-51
2023/01/21 09:34:30;;;;;;;;;;;6.30;99.90;;;;;;5101205;28;20349;-50
2023/01/21 09:36:55;;;;;;;;;;;6.80;99.90;;;;;;5101005;28;19908;-54
2023/01/21 09:39:21;;;;;;;;;;;7.00;99.90;;;;;;5101292;28;19908;-51
2023/01/21 09:41:57;;;;;;;;;;;7.00;99.90;;;;;;5101125;28;19919;-53
2023/01/21 09:44:25;;;;;;;;;;;7.20;99.90;;;;;;5100821;28;19912;-52
2023/01/21 09:46:56;;;;;;;;;;;7.60;99.90;;;;;;5100738;28;20420;-55
2023/01/21 09:49:24;;;;;;;;;;;7.90;99.90;;;;;;5100800;28;20286;-54
2023/01/21 09:51:57;;;;;;;;;;;8.00;99.90;;;;;;5100925;28;19955;-55
2023/01/21 09:54:27;;;;;;;;;;;7.90;99.90;;;;;;5100432;28;20406;-54
2023/01/21 09:57:04;;;;;;;;;;;7.70;99.90;;;;;;5100917;28;19912;-54
2023/01/21 09:59:43;;;;;;;;;;;7.60;99.90;;;;;;5100692;28;19924;-53
2023/01/21 10:02:16;;;;;;;;;;;7.90;99.90;;;;;;5100494;28;19955;-54
2023/01/21 10:04:47;;;;;;;;;;;8.20;99.90;;;;;;5100515;28;19936;-52
2023/01/21 10:07:27;;;;;;;;;;;8.20;99.90;;;;;;5100491;28;19912;-52
2023/01/21 10:09:59;;;;;;;;;;;8.10;99.90;;;;;;5100745;28;19912;-55
2023/01/21 10:12:25;;;;;;;;;;;8.10;99.90;;;;;;5100803;28;19996;-52
2023/01/21 10:14:51;;;;;;;;;;;8.50;99.90;;;;;;5100083;28;19958;-53
2023/01/21 10:17:22;;;;;;;;;;;9.20;99.90;;;;;;5100405;28;19908;-55
2023/01/21 10:19:57;;;;;;;;;;;9.60;99.90;;;;;;5100404;28;19933;-56
2023/01/21 10:22:25;;;;;;;;;;;9.90;99.90;;;;;;5100087;28;19918;-53
2023/01/21 10:25:02;;;;;;;;;;;10.60;99.90;;;;;;5100249;28;19923;-54
2023/01/21 10:27:31;;;;;;;;;;;11.30;99.90;;;;;;5100330;28;19915;-56
2023/01/21 10:29:59;;;;;;;;;;;11.80;99.90;;;;;;5100068;28;19952;-52
2023/01/21 10:32:26;;;;;;;;;;;12.20;99.90;;;;;;5099965;28;20370;-54
2023/01/21 10:34:53;;;;;;;;;;;12.90;99.90;;;;;;5098259;28;19908;-56
2023/01/21 10:37:37;;;;;;;;;;;13.20;99.90;;;;;;5099826;28;20290;-54
2023/01/21 10:40:03;;;;;;;;;;;13.90;99.90;;;;;;5099373;28;19919;-54
2023/01/21 10:42:41;;;;;;;;;;;14.30;99.90;;;;;;5098827;28;20002;-53
2023/01/21 10:45:18;;;;;;;;;;;14.70;99.90;;;;;;5099804;28;19915;-57
2023/01/21 10:47:49;;;;;;;;;;;15.50;99.90;;;;;;5100000;28;20006;-56
2023/01/21 10:50:32;;;;;;;;;;;16.00;99.90;;;;;;5099623;28;19965;-55
2023/01/21 10:53:16;;;;;;;;;;;16.80;99.90;;;;;;5100066;28;20003;-53
2023/01/21 10:56:00;;;;;;;;;;;17.80;99.90;;;;;;5099765;28;19908;-56
2023/01/21 10:58:25;;;;;;;;;;;18.30;99.90;;;;;;5098829;28;19961;-56
2023/01/21 11:00:52;;;;;;;;;;;17.30;99.90;;;;;;5098092;28;19920;-56
2023/01/21 11:03:21;;;;;;;;;;;17.90;99.90;;;;;;5098323;28;19947;-56
2023/01/21 11:05:46;;;;;;;;;;;18.40;99.90;;;;;;5098960;28;19958;-57
2023/01/21 11:08:20;;;;;;;;;;;18.80;99.10;;;;;;5099051;28;19908;-57
2023/01/21 11:10:46;;;;;;;;;;;19.00;99.90;;;;;;5099239;28;19908;-56
2023/01/21 11:13:12;;;;;;;;;;;18.80;93.00;;;;;;5099625;28;19958;-56
2023/01/21 11:15:40;;;;;;;;;;;19.10;99.90;;;;;;5099229;28;19911;-56
2023/01/21 11:18:24;;;;;;;;;;;19.50;95.90;;;;;;5099319;28;20336;-56
2023/01/21 11:20:49;;;;;;;;;;;19.90;92.70;;;;;;5099273;28;19908;-57
2023/01/21 11:23:26;;;;;;;;;;;19.60;86.00;;;;;;5099238;28;19912;-55
2023/01/21 11:25:59;;;;;;;;;;;18.60;84.10;;;;;;5098757;28;19908;-55
2023/01/21 11:28:25;;;;;;;;;;;18.40;91.40;;;;;;5099096;28;19915;-57
2023/01/21 11:31:03;;;;;;;;;;;18.60;91.70;;;;;;5099152;28;19943;-56
2023/01/21 11:33:28;;;;;;;;;;;18.40;77.70;;;;;;5098866;28;19908;-56
2023/01/21 11:35:55;;;;;;;;;;;18.60;91.00;;;;;;5098906;28;19953;-56
2023/01/21 11:38:33;;;;;;;;;;;19.00;97.40;;;;;;5098922;28;19908;-56
2023/01/21 11:41:00;;;;;;;;;;;19.50;92.50;;;;;;5098760;28;19915;-56
2023/01/21 11:43:45;;;;;;;;;;;20.20;94.90;;;;;;5098577;28;20410;-55
2023/01/21 11:46:21;;;;;;;;;;;21.10;94.40;;;;;;5098864;28;19908;-56
2023/01/21 11:48:46;;;;;;;;;;;21.40;93.00;;;;;;5098782;28;19915;-55
2023/01/21 11:51:12;;;;;;;;;;;21.20;89.30;;;;;;5098846;28;19912;-56
2023/01/21 11:53:39;;;;;;;;;;;21.30;79.50;;;;;;5098363;28;19914;-56
2023/01/21 11:56:05;;;;;;;;;;;21.10;78.70;;;;;;5097235;28;20325;-55
2023/01/21 11:58:32;;;;;;;;;;;21.70;82.70;;;;;;5098376;28;19947;-56
2023/01/21 12:01:00;;;;;;;;;;;20.70;70.60;;;;;;5098200;28;19942;-55
2023/01/21 12:03:30;;;;;;;;;;;19.30;69.00;;;;;;5098419;28;19920;-56
2023/01/21 12:05:56;;;;;;;;;;;18.90;69.50;;;;;;5098289;28;19915;-54
2023/01/21 12:08:26;;;;;;;;;;;19.90;76.70;;;;;;5098682;28;19908;-55
2023/01/21 12:10:53;;;;;;;;;;;20.10;70.50;;;;;;5098259;28;19951;-54
2023/01/21 12:13:21;;;;;;;;;;;20.10;85.40;;;;;;5098677;28;19914;-56
2023/01/21 12:16:05;;;;;;;;;;;21.30;87.50;;;;;;5098380;28;19912;-55
2023/01/21 12:19:02;;;;;;;;;;;22.00;81.20;;;;;;5098331;28;20281;-56
2023/01/21 12:21:28;;;;;;;;;;;20.80;65.20;;;;;;5060942;28;19909;-55
2023/01/21 12:23:59;;;;;;;;;;;21.00;76.00;;;;;;5098236;28;20376;-53
2023/01/21 12:26:32;;;;;;;;;;;21.20;85.70;;;;;;5098074;28;20379;-56
2023/01/21 12:28:58;;;;;;;;;;;21.10;75.50;;;;;;5098157;28;19908;-56
2023/01/21 12:31:36;;;;;;;;;;;22.10;71.00;;;;;;5098202;28;19916;-56
2023/01/21 12:34:25;;;;;;;;;;;21.40;67.30;;;;;;5098088;28;19908;-55
2023/01/21 12:37:09;;;;;;;;;;;21.40;68.50;;;;;;5092044;28;19922;-54
2023/01/21 12:39:36;;;;;;;;;;;21.10;72.00;;;;;;5098381;28;20003;-55
2023/01/21 12:42:17;;;;;;;;;;;21.40;69.00;;;;;;5098339;28;20401;-53
2023/01/21 12:44:52;;;;;;;;;;;21.10;64.10;;;;;;5097990;28;19912;-54
2023/01/21 12:47:21;;;;;;;;;;;21.00;66.20;;;;;;5098034;28;19990;-55
2023/01/21 12:49:46;;;;;;;;;;;21.00;63.90;;;;;;5097633;28;20397;-56
2023/01/21 12:52:29;;;;;;;;;;;21.10;65.70;;;;;;5097888;28;19973;-55
2023/01/21 12:55:00;;;;;;;;;;;21.20;68.90;;;;;;5098146;28;19998;-54
2023/01/21 12:57:28;;;;;;;;;;;21.20;67.60;;;;;;5097757;28;20000;-54
2023/01/21 12:59:55;;;;;;;;;;;21.30;74.60;;;;;;5097583;28;19920;-55
2023/01/21 13:02:33;;;;;;;;;;;21.40;68.30;;;;;;5097756;28;19947;-54
2023/01/21 13:05:17;;;;;;;;;;;21.40;65.40;;;;;;5097696;28;20023;-54
2023/01/21 13:08:04;;;;;;;;;;;21.60;71.00;;;;;;5102098;28;19912;-53
2023/01/21 13:10:33;;;;;;;;;;;22.20;70.80;;;;;;5101976;28;19955;-56
2023/01/21 13:13:05;;;;;;;;;;;21.80;64.20;;;;;;5101681;28;20419;-56
2023/01/21 13:15:35;;;;;;;;;;;21.10;59.60;;;;;;5101762;28;19908;-56
2023/01/21 13:18:04;;;;;;;;;;;21.10;65.70;;;;;;5101746;28;19908;-55
2023/01/21 13:20:32;;;;;;;;;;;21.00;62.30;;;;;;5101538;28;19908;-55
2023/01/21 13:23:00;;;;;;;;;;;20.20;65.30;;;;;;5101748;28;19918;-52
2023/01/21 13:25:32;;;;;;;;;;;20.20;62.40;;;;;;5101305;28;19915;-54
2023/01/21 13:27:59;;;;;;;;;;;20.40;63.60;;;;;;5101496;28;19915;-56
2023/01/21 13:30:27;;;;;;;;;;;19.80;64.20;;;;;;5101012;28;19908;-53
2023/01/21 13:32:53;;;;;;;;;;;19.90;70.30;;;;;;5101193;28;19969;-56
2023/01/21 13:35:24;;;;;;;;;;;20.40;66.60;;;;;;5101371;28;20245;-56
2023/01/21 13:38:08;;;;;;;;;;;20.70;77.20;;;;;;5101073;28;19912;-55
2023/01/21 13:40:43;;;;;;;;;;;21.20;64.20;;;;;;5101167;28;19931;-56
2023/01/21 13:43:29;;;;;;;;;;;19.90;59.00;;;;;;5101167;28;19962;-52
2023/01/21 13:46:05;;;;;;;;;;;19.90;64.60;;;;;;5100533;28;20411;-54
2023/01/21 13:48:31;;;;;;;;;;;19.50;62.40;;;;;;5101059;28;20011;-53
2023/01/21 13:51:15;;;;;;;;;;;19.60;62.60;;;;;;5100750;28;19953;-54
2023/01/21 13:53:41;;;;;;;;;;;19.40;63.30;;;;;;5101106;28;19908;-54
2023/01/21 13:56:25;;;;;;;;;;;19.50;61.90;;;;;;5100939;28;20248;-56
2023/01/21 13:59:09;;;;;;;;;;;19.60;60.10;;;;;;5100823;28;19933;-53
2023/01/21 14:01:43;;;;;;;;;;;19.20;61.90;;;;;;5101025;28;19946;-55
2023/01/21 14:04:13;;;;;;;;;;;19.40;61.50;;;;;;5101133;28;20356;-54
2023/01/21 14:06:55;;;;;;;;;;;19.50;63.00;;;;;;5100714;28;19908;-56
2023/01/21 14:09:23;;;;;;;;;;;19.40;63.10;;;;;;5100846;28;19930;-56
2023/01/21 14:11:52;;;;;;;;;;;19.60;63.10;;;;;;5100793;28;19915;-54
2023/01/21 14:14:20;;;;;;;;;;;19.70;64.60;;;;;;5100551;28;19908;-56
2023/01/21 14:16:48;;;;;;;;;;;20.00;63.00;;;;;;5099542;28;20356;-52
2023/01/21 14:19:43;;;;;;;;;;;19.70;60.70;;;;;;5100377;28;20352;-55
2023/01/21 14:22:15;;;;;;;;;;;19.00;61.60;;;;;;5062730;28;19913;-55
2023/01/21 14:24:48;;;;;;;;;;;19.60;63.50;;;;;;5100284;28;19988;-56
2023/01/21 14:27:23;;;;;;;;;;;19.40;61.70;;;;;;5100488;28;19915;-51
2023/01/21 14:29:54;;;;;;;;;;;19.70;61.30;;;;;;5100475;28;20377;-54
2023/01/21 14:32:28;;;;;;;;;;;20.00;60.00;;;;;;5100376;28;19915;-55
2023/01/21 14:35:14;;;;;;;;;;;19.80;60.80;;;;;;5099951;28;19908;-50
2023/01/21 14:37:42;;;;;;;;;;;19.60;60.30;;;;;;5099698;28;19908;-54